createdAt,value
2023-01-03T00:00:02.472Z,10.25
2023-01-03T00:01:02.359Z,10.22
2023-01-03T00:02:02.346Z,10.22
2023-01-03T00:03:02.301Z,10.22
2023-01-03T00:04:02.312Z,10.23
2023-01-03T00:05:02.266Z,10.17
2023-01-03T00:06:02.233Z,10.20
2023-01-03T00:07:02.143Z,10.15
2023-01-03T00:08:02.102Z,10.12
2023-01-03T00:09:02.088Z,10.05
2023-01-03T00:10:02.042Z,10.12
2023-01-03T00:11:01.997Z,10.01
2023-01-03T00:12:02.035Z,9.99
2023-01-03T00:13:01.938Z,9.95
2023-01-03T00:14:01.910Z,9.92
2023-01-03T00:15:01.885Z,9.95
2023-01-03T00:16:01.873Z,9.89
2023-01-03T00:17:01.844Z,9.83
2023-01-03T00:18:01.835Z,9.89
2023-01-03T00:19:01.751Z,9.76
2023-01-03T00:20:01.723Z,9.84
2023-01-03T00:21:01.670Z,9.82
2023-01-03T00:22:01.649Z,9.76
2023-01-03T00:23:01.655Z,9.73
2023-01-03T00:24:01.571Z,9.74
2023-01-03T00:25:01.539Z,9.76
2023-01-03T00:26:01.517Z,9.76
2023-01-03T00:27:01.492Z,9.72
2023-01-03T00:28:01.436Z,9.74
2023-01-03T00:29:01.463Z,9.73
2023-01-03T00:30:01.398Z,9.73
2023-01-03T00:31:01.386Z,9.76
2023-01-03T00:32:01.299Z,9.76
2023-01-03T00:33:01.260Z,9.72
2023-01-03T00:34:01.236Z,9.72
2023-01-03T00:35:05.001Z,9.74
2023-01-03T00:36:01.193Z,9.68
2023-01-03T00:37:01.135Z,9.66
2023-01-03T00:38:01.106Z,9.68
2023-01-03T00:39:01.143Z,9.54
2023-01-03T00:40:01.031Z,9.56
2023-01-03T00:41:01.059Z,9.51
2023-01-03T00:42:00.950Z,9.44
2023-01-03T00:43:00.945Z,9.47
2023-01-03T00:44:00.898Z,9.37
2023-01-03T00:45:00.867Z,9.39
2023-01-03T00:46:00.863Z,9.28
2023-01-03T00:47:00.883Z,9.31
2023-01-03T00:48:00.754Z,9.21
2023-01-03T00:49:00.726Z,9.22
2023-01-03T00:50:00.695Z,9.14
2023-01-03T00:51:00.686Z,9.11
2023-01-03T00:52:00.658Z,9.04
2023-01-03T00:53:00.651Z,9.03
2023-01-03T00:54:00.559Z,9.02
2023-01-03T00:55:00.527Z,8.81
2023-01-03T00:56:00.491Z,8.78
2023-01-03T00:57:00.462Z,8.84
2023-01-03T00:58:00.429Z,8.78
2023-01-03T00:59:00.475Z,8.71
2023-01-03T01:00:00.348Z,8.66
2023-01-03T01:01:00.345Z,8.63
2023-01-03T01:02:00.481Z,8.64
2023-01-03T01:03:00.442Z,8.70
2023-01-03T01:04:00.257Z,8.74
2023-01-03T01:05:00.250Z,8.74
2023-01-03T01:06:00.141Z,8.78
2023-01-03T01:07:00.148Z,8.70
2023-01-03T01:08:00.105Z,8.89
2023-01-03T01:09:00.060Z,8.87
2023-01-03T01:10:00.011Z,8.89
2023-01-03T01:11:00.035Z,8.84
2023-01-03T01:11:59.952Z,8.94
2023-01-03T01:12:59.920Z,8.88
2023-01-03T01:13:59.887Z,8.87
2023-01-03T01:14:59.844Z,8.87
2023-01-03T01:15:59.842Z,8.85
2023-01-03T01:16:59.833Z,8.85
2023-01-03T01:17:59.737Z,8.84
2023-01-03T01:18:59.728Z,8.78
2023-01-03T01:19:59.677Z,8.87
2023-01-03T01:20:59.651Z,8.85
2023-01-03T01:21:59.602Z,8.87
2023-01-03T01:22:59.634Z,8.69
2023-01-03T01:23:59.531Z,8.71
2023-01-03T01:24:59.502Z,8.79
2023-01-03T01:25:59.472Z,8.66
2023-01-03T01:26:59.437Z,8.67
2023-01-03T01:27:59.466Z,8.71
2023-01-03T01:28:59.362Z,8.81
2023-01-03T01:29:59.322Z,8.76
2023-01-03T01:30:59.308Z,8.71
2023-01-03T01:31:59.264Z,8.69
2023-01-03T01:32:59.225Z,8.89
2023-01-03T01:33:59.231Z,8.82
2023-01-03T01:34:59.150Z,8.89
2023-01-03T01:35:59.119Z,9.03
2023-01-03T01:36:59.083Z,8.99
2023-01-03T01:37:59.074Z,9.03
2023-01-03T01:38:59.032Z,9.00
2023-01-03T01:39:59.045Z,9.08
2023-01-03T01:40:58.955Z,9.03
2023-01-03T01:41:58.929Z,8.99
2023-01-03T01:42:58.880Z,9.00
2023-01-03T01:43:58.845Z,8.92
2023-01-03T01:44:58.828Z,8.97
2023-01-03T01:45:58.844Z,8.97
2023-01-03T01:46:58.761Z,8.89
2023-01-03T01:47:58.705Z,8.89
2023-01-03T01:48:58.680Z,8.82
2023-01-03T01:49:58.709Z,8.91
2023-01-03T01:50:58.596Z,8.84
2023-01-03T01:51:58.625Z,8.79
2023-01-03T01:52:58.535Z,8.74
2023-01-03T01:53:58.517Z,8.81
2023-01-03T01:54:58.475Z,8.82
2023-01-03T01:55:58.433Z,8.69
2023-01-03T01:56:58.402Z,8.79
2023-01-03T01:57:58.433Z,8.71
2023-01-03T01:58:58.337Z,8.69
2023-01-03T01:59:58.303Z,8.52
2023-01-03T02:00:58.279Z,8.48
2023-01-03T02:01:58.362Z,8.49
2023-01-03T02:02:58.328Z,8.41
2023-01-03T02:03:58.229Z,8.44
2023-01-03T02:04:58.124Z,8.38
2023-01-03T02:05:58.095Z,8.33
2023-01-03T02:06:58.082Z,8.34
2023-01-03T02:07:58.882Z,8.15
2023-01-03T02:08:58.066Z,8.16
2023-01-03T02:09:58.037Z,8.09
2023-01-03T02:10:58.002Z,8.15
2023-01-03T02:11:57.885Z,8.10
2023-01-03T02:12:57.843Z,8.12
2023-01-03T02:13:57.820Z,8.09
2023-01-03T02:14:57.788Z,8.10
2023-01-03T02:15:57.884Z,8.06
2023-01-03T02:16:57.707Z,7.98
2023-01-03T02:17:57.670Z,8.05
2023-01-03T02:18:57.704Z,8.06
2023-01-03T02:19:57.627Z,7.98
2023-01-03T02:20:57.581Z,7.90
2023-01-03T02:21:57.623Z,7.80
2023-01-03T02:22:57.512Z,7.77
2023-01-03T02:23:57.542Z,7.79
2023-01-03T02:24:57.433Z,7.75
2023-01-03T02:25:57.407Z,7.76
2023-01-03T02:26:57.364Z,7.75
2023-01-03T02:27:57.396Z,7.76
2023-01-03T02:28:57.299Z,7.75
2023-01-03T02:29:57.329Z,7.67
2023-01-03T02:30:57.271Z,7.66
2023-01-03T02:31:57.191Z,7.61
2023-01-03T02:32:57.162Z,7.63
2023-01-03T02:33:57.203Z,7.53
2023-01-03T02:34:57.111Z,7.51
2023-01-03T02:35:57.052Z,7.48
2023-01-03T02:36:57.018Z,7.50
2023-01-03T02:37:56.982Z,7.47
2023-01-03T02:38:56.944Z,7.40
2023-01-03T02:39:56.978Z,7.32
2023-01-03T02:40:56.882Z,7.24
2023-01-03T02:41:56.844Z,7.24
2023-01-03T02:42:56.812Z,7.32
2023-01-03T02:43:56.764Z,7.25
2023-01-03T02:44:56.787Z,7.24
2023-01-03T02:45:56.772Z,7.21
2023-01-03T02:46:56.762Z,7.29
2023-01-03T02:47:56.679Z,7.24
2023-01-03T02:48:56.601Z,7.20
2023-01-03T02:49:56.565Z,7.18
2023-01-03T02:50:56.631Z,7.14
2023-01-03T02:51:56.513Z,7.15
2023-01-03T02:52:56.476Z,7.17
2023-01-03T02:53:56.476Z,7.13
2023-01-03T02:54:56.423Z,7.15
2023-01-03T02:55:56.382Z,7.28
2023-01-03T02:56:56.397Z,7.23
2023-01-03T02:57:56.274Z,7.29
2023-01-03T02:58:56.322Z,7.23
2023-01-03T02:59:56.888Z,7.21
2023-01-03T03:00:56.197Z,7.25
2023-01-03T03:01:56.264Z,7.24
2023-01-03T03:02:56.325Z,7.29
2023-01-03T03:03:56.163Z,7.23
2023-01-03T03:04:56.144Z,7.21
2023-01-03T03:05:56.016Z,7.21
2023-01-03T03:06:55.997Z,7.25
2023-01-03T03:07:55.959Z,7.33
2023-01-03T03:08:55.981Z,7.20
2023-01-03T03:09:55.942Z,7.29
2023-01-03T03:10:55.841Z,7.24
2023-01-03T03:11:55.787Z,7.24
2023-01-03T03:12:55.774Z,7.24
2023-01-03T03:13:55.717Z,7.23
2023-01-03T03:14:55.766Z,7.23
2023-01-03T03:15:55.674Z,7.32
2023-01-03T03:16:55.619Z,7.24
2023-01-03T03:17:55.589Z,7.28
2023-01-03T03:18:55.550Z,7.24
2023-01-03T03:19:55.609Z,7.21
2023-01-03T03:20:55.479Z,7.15
2023-01-03T03:21:55.433Z,7.14
2023-01-03T03:22:55.437Z,7.14
2023-01-03T03:23:55.358Z,7.14
2023-01-03T03:24:55.332Z,7.03
2023-01-03T03:25:55.437Z,7.05
2023-01-03T03:26:55.265Z,7.02
2023-01-03T03:27:55.220Z,7.06
2023-01-03T03:28:55.187Z,7.05
2023-01-03T03:29:55.161Z,7.02
2023-01-03T03:30:55.161Z,6.95
2023-01-03T03:31:55.188Z,6.87
2023-01-03T03:32:55.038Z,6.93
2023-01-03T03:33:55.017Z,6.85
2023-01-03T03:34:54.977Z,6.78
2023-01-03T03:35:54.943Z,6.70
2023-01-03T03:36:54.907Z,6.81
2023-01-03T03:37:54.926Z,6.74
2023-01-03T03:38:54.832Z,6.84
2023-01-03T03:39:54.819Z,6.79
2023-01-03T03:40:54.756Z,6.82
2023-01-03T03:41:54.733Z,6.67
2023-01-03T03:42:54.704Z,6.81
2023-01-03T03:43:54.712Z,6.69
2023-01-03T03:44:54.631Z,6.67
2023-01-03T03:45:54.595Z,6.67
2023-01-03T03:46:55.294Z,6.74
2023-01-03T03:47:54.527Z,6.64
2023-01-03T03:48:54.494Z,6.69
2023-01-03T03:49:54.440Z,6.70
2023-01-03T03:50:54.406Z,6.70
2023-01-03T03:51:54.384Z,6.70
2023-01-03T03:52:54.910Z,6.79
2023-01-03T03:53:54.335Z,6.75
2023-01-03T03:54:54.301Z,6.81
2023-01-03T03:55:54.242Z,6.77
2023-01-03T03:56:54.208Z,6.77
2023-01-03T03:57:54.260Z,6.72
2023-01-03T03:58:54.222Z,6.75
2023-01-03T03:59:54.137Z,6.75
2023-01-03T04:00:54.094Z,6.74
2023-01-03T04:01:54.189Z,6.79
2023-01-03T04:02:54.150Z,6.77
2023-01-03T04:03:54.096Z,6.67
2023-01-03T04:04:54.042Z,6.72
2023-01-03T04:05:53.872Z,6.64
2023-01-03T04:06:53.827Z,6.74
2023-01-03T04:07:53.794Z,6.67
2023-01-03T04:08:53.765Z,6.63
2023-01-03T04:09:53.730Z,6.62
2023-01-03T04:10:53.772Z,6.60
2023-01-03T04:11:53.660Z,6.60
2023-01-03T04:12:53.636Z,6.59
2023-01-03T04:13:53.588Z,6.51
2023-01-03T04:14:53.544Z,6.49
2023-01-03T04:15:53.551Z,6.51
2023-01-03T04:16:53.615Z,6.52
2023-01-03T04:17:53.452Z,6.51
2023-01-03T04:18:53.401Z,6.44
2023-01-03T04:19:53.385Z,6.41
2023-01-03T04:20:53.333Z,6.39
2023-01-03T04:21:53.302Z,6.28
2023-01-03T04:22:53.319Z,6.27
2023-01-03T04:23:53.253Z,6.28
2023-01-03T04:24:53.213Z,6.26
2023-01-03T04:25:53.161Z,6.24
2023-01-03T04:26:53.124Z,6.24
2023-01-03T04:27:53.106Z,6.27
2023-01-03T04:28:53.121Z,6.22
2023-01-03T04:29:53.082Z,6.20
2023-01-03T04:30:52.974Z,6.27
2023-01-03T04:31:52.992Z,6.16
2023-01-03T04:32:52.917Z,6.11
2023-01-03T04:33:52.889Z,6.02
2023-01-03T04:34:52.893Z,6.05
2023-01-03T04:35:52.807Z,6.09
2023-01-03T04:36:52.771Z,6.11
2023-01-03T04:37:52.732Z,6.11
2023-01-03T04:38:52.693Z,6.09
2023-01-03T04:39:52.655Z,6.11
2023-01-03T04:40:52.697Z,6.08
2023-01-03T04:41:52.625Z,6.01
2023-01-03T04:42:52.557Z,6.01
2023-01-03T04:43:52.600Z,6.09
2023-01-03T04:44:52.477Z,6.12
2023-01-03T04:45:52.516Z,6.11
2023-01-03T04:46:53.391Z,6.11
2023-01-03T04:47:52.401Z,6.02
2023-01-03T04:48:52.335Z,5.99
2023-01-03T04:49:52.335Z,5.97
2023-01-03T04:50:52.275Z,6.05
2023-01-03T04:51:52.288Z,6.07
2023-01-03T04:52:52.610Z,6.05
2023-01-03T04:53:53.031Z,5.99
2023-01-03T04:54:52.257Z,5.93
2023-01-03T04:55:52.151Z,5.93
2023-01-03T04:56:52.056Z,5.86
2023-01-03T04:57:52.029Z,5.82
2023-01-03T04:58:52.909Z,5.82
2023-01-03T04:59:51.977Z,5.86
2023-01-03T05:00:52.665Z,5.79
2023-01-03T05:01:52.317Z,5.76
2023-01-03T05:02:51.858Z,5.71
2023-01-03T05:03:51.899Z,5.65
2023-01-03T05:04:51.777Z,5.72
2023-01-03T05:05:51.739Z,5.66
2023-01-03T05:06:51.765Z,5.66
2023-01-03T05:07:51.653Z,5.64
2023-01-03T05:08:51.633Z,5.61
2023-01-03T05:09:51.574Z,5.69
2023-01-03T05:10:51.598Z,5.57
2023-01-03T05:11:51.507Z,5.69
2023-01-03T05:12:51.538Z,5.68
2023-01-03T05:13:51.456Z,5.68
2023-01-03T05:14:51.395Z,5.69
2023-01-03T05:15:51.370Z,5.61
2023-01-03T05:16:51.415Z,5.59
2023-01-03T05:17:51.293Z,5.59
2023-01-03T05:18:51.340Z,5.59
2023-01-03T05:19:51.231Z,5.59
2023-01-03T05:20:51.176Z,5.61
2023-01-03T05:21:51.153Z,5.62
2023-01-03T05:22:51.114Z,5.61
2023-01-03T05:23:51.072Z,5.62
2023-01-03T05:24:51.104Z,5.61
2023-01-03T05:25:51.014Z,5.61
2023-01-03T05:26:50.965Z,5.56
2023-01-03T05:27:50.928Z,5.48
2023-01-03T05:28:50.904Z,5.50
2023-01-03T05:29:50.920Z,5.48
2023-01-03T05:30:50.823Z,5.43
2023-01-03T05:31:50.872Z,5.50
2023-01-03T05:32:50.742Z,5.38
2023-01-03T05:33:50.715Z,5.41
2023-01-03T05:34:50.679Z,5.30
2023-01-03T05:35:50.728Z,5.29
2023-01-03T05:36:50.629Z,5.32
2023-01-03T05:37:50.570Z,5.29
2023-01-03T05:38:50.533Z,5.33
2023-01-03T05:39:50.502Z,5.25
2023-01-03T05:40:50.457Z,5.32
2023-01-03T05:41:50.490Z,5.25
2023-01-03T05:42:50.450Z,5.18
2023-01-03T05:43:50.355Z,5.14
2023-01-03T05:44:50.332Z,5.25
2023-01-03T05:45:50.399Z,5.08
2023-01-03T05:46:50.343Z,5.12
2023-01-03T05:47:50.336Z,5.17
2023-01-03T05:48:50.232Z,5.15
2023-01-03T05:49:50.242Z,5.08
2023-01-03T05:50:51.066Z,5.10
2023-01-03T05:51:50.142Z,5.00
2023-01-03T05:52:50.592Z,5.04
2023-01-03T05:53:50.100Z,5.08
2023-01-03T05:54:50.925Z,4.94
2023-01-03T05:55:49.984Z,4.99
2023-01-03T05:56:49.940Z,4.90
2023-01-03T05:57:49.901Z,5.07
2023-01-03T05:58:52.921Z,5.07
2023-01-03T05:59:49.778Z,5.07
2023-01-03T06:00:49.744Z,4.96
2023-01-03T06:01:49.839Z,4.92
2023-01-03T06:02:49.702Z,4.94
2023-01-03T06:03:49.634Z,4.96
2023-01-03T06:04:49.698Z,5.07
2023-01-03T06:05:50.574Z,4.94
2023-01-03T06:06:49.525Z,4.99
2023-01-03T06:07:49.488Z,4.99
2023-01-03T06:08:49.470Z,5.05
2023-01-03T06:09:49.405Z,4.92
2023-01-03T06:10:49.419Z,4.94
2023-01-03T06:11:49.345Z,4.89
2023-01-03T06:12:49.296Z,4.89
2023-01-03T06:13:49.271Z,4.74
2023-01-03T06:14:49.240Z,4.73
2023-01-03T06:15:49.187Z,4.82
2023-01-03T06:16:49.260Z,4.71
2023-01-03T06:17:49.137Z,4.77
2023-01-03T06:18:49.078Z,4.73
2023-01-03T06:19:49.135Z,4.70
2023-01-03T06:20:49.008Z,4.67
2023-01-03T06:21:48.971Z,4.66
2023-01-03T06:22:48.997Z,4.63
2023-01-03T06:23:48.898Z,4.58
2023-01-03T06:24:48.873Z,4.63
2023-01-03T06:25:48.820Z,4.56
2023-01-03T06:26:48.789Z,4.66
2023-01-03T06:27:48.756Z,4.56
2023-01-03T06:28:48.781Z,4.56
2023-01-03T06:29:48.682Z,4.62
2023-01-03T06:30:48.693Z,4.68
2023-01-03T06:31:48.609Z,4.71
2023-01-03T06:32:48.567Z,4.68
2023-01-03T06:33:48.567Z,4.75
2023-01-03T06:34:48.552Z,4.71
2023-01-03T06:35:48.467Z,4.74
2023-01-03T06:36:48.426Z,4.82
2023-01-03T06:37:48.387Z,4.68
2023-01-03T06:38:48.361Z,4.84
2023-01-03T06:39:48.618Z,4.77
2023-01-03T06:40:48.279Z,4.80
2023-01-03T06:41:48.307Z,4.75
2023-01-03T06:42:48.344Z,4.78
2023-01-03T06:43:48.221Z,4.78
2023-01-03T06:44:48.202Z,4.86
2023-01-03T06:45:48.294Z,4.82
2023-01-03T06:46:48.304Z,4.77
2023-01-03T06:47:48.067Z,4.86
2023-01-03T06:48:48.061Z,4.87
2023-01-03T06:49:47.987Z,4.74
2023-01-03T06:50:47.968Z,4.82
2023-01-03T06:51:47.992Z,4.77
2023-01-03T06:52:47.864Z,4.75
2023-01-03T06:53:47.798Z,4.74
2023-01-03T06:54:47.772Z,4.84
2023-01-03T06:55:54.391Z,4.84
2023-01-03T06:56:47.693Z,4.84
2023-01-03T06:57:47.718Z,4.74
2023-01-03T06:58:47.627Z,4.73
2023-01-03T06:59:47.589Z,4.84
2023-01-03T07:00:47.546Z,4.71
2023-01-03T07:01:47.584Z,4.82
2023-01-03T07:02:47.552Z,4.75
2023-01-03T07:03:47.504Z,4.82
2023-01-03T07:04:47.484Z,4.82
2023-01-03T07:05:47.370Z,4.74
2023-01-03T07:06:47.335Z,4.70
2023-01-03T07:07:47.294Z,4.78
2023-01-03T07:08:48.677Z,4.77
2023-01-03T07:09:47.283Z,4.71
2023-01-03T07:10:47.205Z,4.71
2023-01-03T07:11:47.149Z,4.63
2023-01-03T07:12:47.124Z,4.60
2023-01-03T07:13:47.064Z,4.58
2023-01-03T07:14:47.039Z,4.66
2023-01-03T07:15:47.162Z,4.59
2023-01-03T07:16:46.959Z,4.53
2023-01-03T07:17:46.930Z,4.49
2023-01-03T07:18:52.841Z,4.45
2023-01-03T07:19:46.859Z,4.53
2023-01-03T07:20:46.823Z,4.44
2023-01-03T07:21:46.853Z,4.45
2023-01-03T07:22:46.740Z,4.49
2023-01-03T07:23:46.709Z,4.50
2023-01-03T07:24:46.669Z,4.44
2023-01-03T07:25:46.626Z,4.53
2023-01-03T07:26:46.587Z,4.48
2023-01-03T07:27:46.619Z,4.50
2023-01-03T07:28:46.529Z,4.44
2023-01-03T07:29:46.520Z,4.50
2023-01-03T07:30:46.527Z,4.50
2023-01-03T07:31:46.465Z,4.48
2023-01-03T07:32:46.380Z,4.44
2023-01-03T07:33:46.412Z,4.42
2023-01-03T07:34:46.303Z,4.48
2023-01-03T07:35:46.262Z,4.34
2023-01-03T07:36:46.237Z,4.38
2023-01-03T07:37:46.209Z,4.34
2023-01-03T07:38:46.171Z,4.42
2023-01-03T07:39:46.178Z,4.40
2023-01-03T07:40:46.099Z,4.32
2023-01-03T07:41:46.038Z,4.38
2023-01-03T07:42:46.010Z,4.38
2023-01-03T07:43:45.993Z,4.34
2023-01-03T07:44:45.979Z,4.41
2023-01-03T07:45:46.047Z,4.42
2023-01-03T07:46:46.008Z,4.49
2023-01-03T07:47:45.860Z,4.49
2023-01-03T07:48:45.828Z,4.49
2023-01-03T07:49:45.774Z,4.42
2023-01-03T07:50:45.847Z,4.38
2023-01-03T07:51:45.814Z,4.38
2023-01-03T07:52:45.677Z,4.45
2023-01-03T07:53:45.651Z,4.38
2023-01-03T07:54:45.581Z,4.38
2023-01-03T07:55:45.605Z,4.38
2023-01-03T07:56:46.438Z,4.40
2023-01-03T07:57:45.568Z,4.38
2023-01-03T07:58:45.453Z,4.38
2023-01-03T07:59:45.381Z,4.32
2023-01-03T08:00:45.347Z,4.42
2023-01-03T08:01:45.404Z,4.28
2023-01-03T08:02:45.479Z,4.22
2023-01-03T08:03:45.317Z,4.34
2023-01-03T08:04:45.332Z,4.37
2023-01-03T08:05:45.157Z,4.38
2023-01-03T08:06:45.127Z,4.38
2023-01-03T08:07:45.088Z,4.41
2023-01-03T08:08:45.051Z,4.44
2023-01-03T08:09:45.044Z,4.41
2023-01-03T08:10:45.100Z,4.37
2023-01-03T08:11:44.941Z,4.38
2023-01-03T08:12:44.917Z,4.37
2023-01-03T08:13:44.916Z,4.31
2023-01-03T08:14:44.840Z,4.30
2023-01-03T08:15:44.842Z,4.26
2023-01-03T08:16:44.843Z,4.28
2023-01-03T08:17:44.777Z,4.30
2023-01-03T08:18:44.692Z,4.35
2023-01-03T08:19:45.989Z,4.37
2023-01-03T08:20:44.611Z,4.40
2023-01-03T08:21:44.574Z,4.40
2023-01-03T08:22:44.607Z,4.42
2023-01-03T08:23:44.514Z,4.48
2023-01-03T08:24:44.467Z,4.38
2023-01-03T08:25:44.432Z,4.44
2023-01-03T08:26:44.401Z,4.55
2023-01-03T08:27:50.047Z,4.53
2023-01-03T08:28:44.407Z,4.62
2023-01-03T08:29:44.292Z,4.60
2023-01-03T08:30:44.260Z,4.59
2023-01-03T08:31:44.325Z,4.55
2023-01-03T08:32:44.171Z,4.58
2023-01-03T08:33:44.142Z,4.68
2023-01-03T08:34:44.214Z,4.71
2023-01-03T08:35:44.087Z,4.71
2023-01-03T08:36:44.077Z,4.71
2023-01-03T08:37:43.995Z,4.73
2023-01-03T08:38:44.072Z,4.73
2023-01-03T08:39:43.971Z,4.84
2023-01-03T08:40:44.048Z,4.77
2023-01-03T08:41:43.884Z,4.92
2023-01-03T08:42:43.961Z,4.89
2023-01-03T08:43:43.826Z,4.90
2023-01-03T08:44:43.761Z,4.89
2023-01-03T08:45:43.846Z,4.99
2023-01-03T08:46:44.183Z,4.97
2023-01-03T08:47:43.710Z,5.07
2023-01-03T08:48:44.461Z,5.05
2023-01-03T08:49:50.456Z,5.11
2023-01-03T08:50:43.552Z,5.08
2023-01-03T08:51:43.477Z,5.12
2023-01-03T08:52:43.519Z,5.23
2023-01-03T08:53:43.405Z,5.21
2023-01-03T08:54:43.377Z,5.30
2023-01-03T08:55:43.340Z,5.32
2023-01-03T08:56:43.310Z,5.26
2023-01-03T08:57:43.270Z,5.26
2023-01-03T08:58:43.275Z,5.30
2023-01-03T08:59:43.201Z,5.33
2023-01-03T09:00:43.153Z,5.35
2023-01-03T09:01:43.355Z,5.35
2023-01-03T09:02:43.312Z,5.33
2023-01-03T09:03:43.207Z,5.36
2023-01-03T09:04:43.083Z,5.33
2023-01-03T09:05:42.970Z,5.43
2023-01-03T09:06:42.932Z,5.47
2023-01-03T09:07:42.928Z,5.50
2023-01-03T09:08:42.867Z,5.61
2023-01-03T09:09:42.827Z,5.62
2023-01-03T09:10:47.482Z,5.64
2023-01-03T09:11:42.754Z,5.72
2023-01-03T09:12:42.758Z,5.80
2023-01-03T09:13:42.703Z,5.80
2023-01-03T09:14:42.667Z,5.82
2023-01-03T09:15:42.644Z,5.82
2023-01-03T09:16:48.586Z,5.91
2023-01-03T09:17:42.602Z,5.83
2023-01-03T09:18:42.497Z,5.76
2023-01-03T09:19:42.490Z,5.83
2023-01-03T09:20:42.455Z,5.91
2023-01-03T09:21:42.415Z,5.94
2023-01-03T09:22:42.427Z,5.97
2023-01-03T09:23:42.393Z,6.02
2023-01-03T09:24:42.319Z,6.05
2023-01-03T09:25:42.285Z,6.11
2023-01-03T09:26:42.236Z,6.19
2023-01-03T09:27:42.952Z,6.30
2023-01-03T09:28:42.270Z,6.39
2023-01-03T09:29:42.168Z,6.46
2023-01-03T09:30:42.952Z,6.60
2023-01-03T09:31:42.086Z,6.57
2023-01-03T09:32:41.998Z,6.72
2023-01-03T09:33:41.991Z,6.87
2023-01-03T09:34:41.988Z,7.06
2023-01-03T09:35:41.886Z,7.14
2023-01-03T09:36:41.851Z,7.18
2023-01-03T09:37:48.541Z,7.21
2023-01-03T09:38:41.771Z,7.35
2023-01-03T09:39:41.750Z,7.45
2023-01-03T09:40:41.786Z,7.51
2023-01-03T09:41:41.680Z,7.53
2023-01-03T09:42:41.641Z,7.63
2023-01-03T09:43:41.729Z,7.75
2023-01-03T09:44:41.567Z,7.72
2023-01-03T09:45:41.538Z,7.80
2023-01-03T09:46:41.620Z,7.77
2023-01-03T09:47:41.459Z,7.95
2023-01-03T09:48:41.756Z,7.98
2023-01-03T09:50:04.699Z,7.98
2023-01-03T09:51:15.829Z,8.12
2023-01-03T09:51:41.317Z,8.12
2023-01-03T09:52:41.291Z,8.13
2023-01-03T09:53:41.253Z,8.05
2023-01-03T09:54:41.264Z,8.06
2023-01-03T09:55:41.188Z,8.20
2023-01-03T09:56:41.151Z,8.12
2023-01-03T09:57:41.113Z,8.12
2023-01-03T09:58:41.079Z,8.18
2023-01-03T09:59:41.124Z,8.26
2023-01-03T10:00:41.068Z,8.30
2023-01-03T10:01:41.147Z,8.30
2023-01-03T10:02:41.092Z,8.31
2023-01-03T10:03:46.379Z,8.34
2023-01-03T10:04:40.871Z,8.34
2023-01-03T10:05:40.899Z,8.51
2023-01-03T10:06:40.810Z,8.52
2023-01-03T10:07:40.762Z,8.63
2023-01-03T10:08:40.735Z,8.74
2023-01-03T10:09:40.694Z,8.74
2023-01-03T10:10:40.680Z,8.71
2023-01-03T10:11:40.693Z,8.74
2023-01-03T10:12:40.590Z,8.76
2023-01-03T10:13:40.556Z,8.71
2023-01-03T10:14:40.532Z,8.73
2023-01-03T10:15:40.539Z,8.71
2023-01-03T10:16:41.193Z,8.67
2023-01-03T10:17:40.525Z,8.66
2023-01-03T10:18:40.438Z,8.64
2023-01-03T10:19:40.388Z,8.56
2023-01-03T10:20:40.366Z,8.64
2023-01-03T10:21:40.356Z,8.69
2023-01-03T10:22:40.290Z,8.66
2023-01-03T10:23:40.693Z,8.67
2023-01-03T10:24:40.237Z,8.67
2023-01-03T10:25:40.212Z,8.69
2023-01-03T10:26:40.222Z,8.85
2023-01-03T10:27:40.121Z,8.88
2023-01-03T10:28:40.047Z,8.82
2023-01-03T10:29:40.090Z,8.84
2023-01-03T10:30:39.995Z,8.81
2023-01-03T10:31:39.996Z,8.91
2023-01-03T10:32:39.919Z,8.89
2023-01-03T10:33:39.882Z,8.97
2023-01-03T10:34:39.868Z,8.92
2023-01-03T10:35:39.886Z,9.00
2023-01-03T10:36:39.775Z,8.94
2023-01-03T10:37:39.740Z,8.97
2023-01-03T10:38:46.377Z,8.95
2023-01-03T10:39:42.596Z,8.88
2023-01-03T10:40:39.636Z,8.89
2023-01-03T10:41:39.672Z,8.91
2023-01-03T10:42:39.620Z,8.95
2023-01-03T10:43:39.633Z,8.97
2023-01-03T10:44:39.553Z,8.94
2023-01-03T10:45:43.772Z,8.94
2023-01-03T10:46:39.555Z,8.99
2023-01-03T10:47:39.493Z,8.92
2023-01-03T10:48:59.951Z,9.13
2023-01-03T10:49:39.432Z,9.22
2023-01-03T10:50:39.405Z,9.19
2023-01-03T10:51:42.830Z,9.25
2023-01-03T10:52:39.301Z,9.16
2023-01-03T10:53:39.207Z,9.18
2023-01-03T10:54:39.164Z,9.22
2023-01-03T10:55:39.133Z,9.28
2023-01-03T10:56:39.107Z,9.29
2023-01-03T10:57:39.157Z,9.28
2023-01-03T10:58:39.043Z,9.19
2023-01-03T10:59:39.031Z,9.19
2023-01-03T11:00:38.965Z,9.19
2023-01-03T11:01:39.046Z,9.16
2023-01-03T11:02:39.014Z,9.21
2023-01-03T11:03:39.016Z,9.25
2023-01-03T11:04:38.835Z,9.21
2023-01-03T11:05:38.789Z,9.25
2023-01-03T11:06:38.782Z,9.23
2023-01-03T11:07:38.723Z,9.03
2023-01-03T11:08:38.709Z,8.97
2023-01-03T11:09:38.729Z,9.03
2023-01-03T11:10:38.638Z,9.03
2023-01-03T11:11:38.616Z,8.99
2023-01-03T11:12:38.555Z,9.02
2023-01-03T11:13:38.557Z,9.00
2023-01-03T11:14:38.503Z,8.99
2023-01-03T11:15:39.348Z,8.85
2023-01-03T11:16:38.467Z,8.81
2023-01-03T11:17:38.393Z,8.71
2023-01-03T11:18:38.366Z,8.71
2023-01-03T11:19:38.325Z,8.74
2023-01-03T11:20:38.297Z,8.69
2023-01-03T11:21:38.309Z,8.69
2023-01-03T11:22:38.364Z,8.69
2023-01-03T11:23:38.199Z,8.64
2023-01-03T11:24:38.158Z,8.64
2023-01-03T11:25:38.136Z,8.56
2023-01-03T11:26:38.092Z,8.64
2023-01-03T11:27:38.121Z,8.60
2023-01-03T11:28:38.119Z,8.56
2023-01-03T11:29:38.033Z,8.51
2023-01-03T11:30:37.977Z,8.55
2023-01-03T11:31:37.973Z,8.48
2023-01-03T11:32:37.916Z,8.52
2023-01-03T11:33:37.937Z,8.53
2023-01-03T11:35:11.592Z,8.51
2023-01-03T11:35:37.775Z,8.49
2023-01-03T11:36:37.740Z,8.58
2023-01-03T11:37:38.992Z,8.51
2023-01-03T11:38:37.700Z,8.58
2023-01-03T11:39:37.729Z,8.38
2023-01-03T11:40:40.481Z,8.36
2023-01-03T11:41:37.623Z,8.33
2023-01-03T11:42:37.586Z,8.34
2023-01-03T11:43:37.596Z,8.42
2023-01-03T11:44:37.536Z,8.52
2023-01-03T11:45:40.667Z,8.51
2023-01-03T11:46:37.491Z,8.61
2023-01-03T11:47:37.412Z,8.67
2023-01-03T11:48:37.349Z,8.66
2023-01-03T11:49:38.480Z,8.67
2023-01-03T11:50:37.321Z,8.70
2023-01-03T11:51:37.980Z,8.71
2023-01-03T11:52:37.209Z,8.81
2023-01-03T11:53:37.169Z,8.92
2023-01-03T11:54:37.128Z,8.97
2023-01-03T11:55:37.101Z,8.97
2023-01-03T11:56:37.072Z,8.94
2023-01-03T11:57:37.091Z,8.85
2023-01-03T11:58:36.998Z,8.81
2023-01-03T11:59:36.965Z,8.69
2023-01-03T12:00:36.925Z,8.71
2023-01-03T12:01:39.568Z,8.69
2023-01-03T12:02:36.909Z,8.67
2023-01-03T12:03:36.991Z,8.84
2023-01-03T12:04:36.866Z,9.00
2023-01-03T12:05:36.761Z,9.14
2023-01-03T12:06:36.719Z,9.21
2023-01-03T12:07:47.506Z,9.28
2023-01-03T12:08:36.656Z,9.31
2023-01-03T12:09:36.680Z,9.34
2023-01-03T12:10:36.592Z,9.22
2023-01-03T12:11:36.550Z,9.18
2023-01-03T12:12:36.521Z,8.99
2023-01-03T12:13:36.483Z,8.92
2023-01-03T12:14:36.463Z,8.82
2023-01-03T12:15:36.544Z,8.70
2023-01-03T12:16:36.440Z,8.67
2023-01-03T12:17:36.348Z,8.53
2023-01-03T12:18:36.321Z,8.49
2023-01-03T12:19:36.283Z,8.45
2023-01-03T12:20:36.249Z,8.45
2023-01-03T12:21:36.275Z,8.34
2023-01-03T12:22:36.184Z,8.41
2023-01-03T12:23:36.144Z,8.46
2023-01-03T12:24:36.107Z,8.49
2023-01-03T12:25:36.120Z,8.38
2023-01-03T12:26:36.042Z,8.41
2023-01-03T12:27:36.077Z,8.30
2023-01-03T12:28:36.054Z,8.37
2023-01-03T12:29:35.942Z,8.42
2023-01-03T12:30:35.914Z,8.51
2023-01-03T12:31:35.939Z,8.45
2023-01-03T12:32:35.841Z,8.41
2023-01-03T12:33:35.861Z,8.34
2023-01-03T12:34:35.815Z,8.33
2023-01-03T12:35:35.828Z,8.33
2023-01-03T12:36:35.709Z,8.36
2023-01-03T12:37:35.764Z,8.34
2023-01-03T12:38:36.205Z,8.42
2023-01-03T12:39:41.959Z,8.51
2023-01-03T12:40:35.586Z,8.38
2023-01-03T12:41:35.531Z,8.36
2023-01-03T12:42:35.509Z,8.34
2023-01-03T12:43:35.529Z,8.34
2023-01-03T12:44:35.432Z,8.42
2023-01-03T12:45:35.412Z,8.51
2023-01-03T12:46:35.417Z,8.63
2023-01-03T12:47:35.365Z,8.66
2023-01-03T12:48:35.296Z,8.85
2023-01-03T12:49:35.322Z,8.85
2023-01-03T12:50:35.305Z,8.71
2023-01-03T12:51:35.194Z,8.74
2023-01-03T12:52:35.155Z,8.70
2023-01-03T12:53:35.153Z,8.53
2023-01-03T12:54:35.094Z,8.41
2023-01-03T12:55:35.115Z,8.28
2023-01-03T12:56:35.031Z,8.27
2023-01-03T12:57:34.993Z,8.33
2023-01-03T12:58:39.312Z,8.23
2023-01-03T12:59:34.921Z,8.12
2023-01-03T13:00:34.884Z,8.16
2023-01-03T13:01:34.969Z,8.13
2023-01-03T13:02:35.067Z,8.09
2023-01-03T13:03:34.859Z,8.16
2023-01-03T13:04:34.826Z,7.95
2023-01-03T13:05:34.713Z,8.03
2023-01-03T13:06:34.680Z,7.95
2023-01-03T13:07:34.650Z,7.95
2023-01-03T13:08:34.632Z,8.00
2023-01-03T13:09:34.640Z,7.83
2023-01-03T13:10:34.542Z,7.93
2023-01-03T13:11:34.536Z,7.77
2023-01-03T13:12:34.482Z,7.75
2023-01-03T13:13:34.443Z,7.79
2023-01-03T13:14:34.467Z,7.82
2023-01-03T13:15:37.175Z,7.77
2023-01-03T13:16:34.477Z,7.76
2023-01-03T13:17:34.309Z,7.77